sensor_id;sensor_type;location;lat;lon;timestamp;temperature;humidity
16846;DHT22;8539;53.188;8.696;2024-01-15T00:01:46;0.70;99.90
16846;DHT22;8539;53.188;8.696;2024-01-15T00:04:12;0.80;99.90
16846;DHT22;8539;53.188;8.696;2024-01-15T00:06:38;0.70;99.90
16846;DHT22;8539;53.188;8.696;2024-01-15T00:09:04;0.70;99.90
16846;DHT22;8539;53.188;8.696;2024-01-15T00:11:32;1.10;99.90
16846;DHT22;8539;53.188;8.696;2024-01-15T00:13:59;0.70;99.90
16846;DHT22;8539;53.188;8.696;2024-01-15T00:16:25;0.70;99.90
16846;DHT22;8539;53.188;8.696;2024-01-15T00:18:52;0.80;99.90
16846;DHT22;8539;53.188;8.696;2024-01-15T00:21:18;0.80;99.90
16846;DHT22;8539;53.188;8.696;2024-01-15T00:23:47;0.80;99.90
16846;DHT22;8539;53.188;8.696;2024-01-15T00:26:13;0.90;99.90
16846;DHT22;8539;53.188;8.696;2024-01-15T00:28:39;0.90;99.90
16846;DHT22;8539;53.188;8.696;2024-01-15T00:31:05;0.90;99.90
16846;DHT22;8539;53.188;8.696;2024-01-15T00:33:32;0.90;99.90
16846;DHT22;8539;53.188;8.696;2024-01-15T00:36:02;0.90;99.90
16846;DHT22;8539;53.188;8.696;2024-01-15T00:38:28;0.90;99.90
16846;DHT22;8539;53.188;8.696;2024-01-15T00:40:55;0.90;99.90
16846;DHT22;8539;53.188;8.696;2024-01-15T00:43:21;1.00;99.90
16846;DHT22;8539;53.188;8.696;2024-01-15T00:45:47;1.00;99.90
16846;DHT22;8539;53.188;8.696;2024-01-15T00:48:13;1.10;99.90
16846;DHT22;8539;53.188;8.696;2024-01-15T00:50:39;1.00;99.90
16846;DHT22;8539;53.188;8.696;2024-01-15T00:53:05;1.00;99.90
16846;DHT22;8539;53.188;8.696;2024-01-15T00:55:34;1.00;99.90
16846;DHT22;8539;53.188;8.696;2024-01-15T00:58:00;1.00;99.90
16846;DHT22;8539;53.188;8.696;2024-01-15T01:00:26;1.00;99.90
16846;DHT22;8539;53.188;8.696;2024-01-15T01:02:52;1.00;99.90
16846;DHT22;8539;53.188;8.696;2024-01-15T01:05:18;1.00;99.90
16846;DHT22;8539;53.188;8.696;2024-01-15T01:07:48;1.00;99.90
16846;DHT22;8539;53.188;8.696;2024-01-15T01:10:14;1.00;99.90
16846;DHT22;8539;53.188;8.696;2024-01-15T01:12:40;1.10;99.90
16846;DHT22;8539;53.188;8.696;2024-01-15T01:15:06;1.10;99.90
16846;DHT22;8539;53.188;8.696;2024-01-15T01:17:32;1.10;99.90
16846;DHT22;8539;53.188;8.696;2024-01-15T01:19:59;1.00;99.90
16846;DHT22;8539;53.188;8.696;2024-01-15T01:22:25;1.00;99.90
16846;DHT22;8539;53.188;8.696;2024-01-15T01:24:51;1.00;99.90
16846;DHT22;8539;53.188;8.696;2024-01-15T01:27:17;1.00;99.90
16846;DHT22;8539;53.188;8.696;2024-01-15T01:29:43;0.90;99.90
16846;DHT22;8539;53.188;8.696;2024-01-15T01:32:09;0.90;99.90
16846;DHT22;8539;53.188;8.696;2024-01-15T01:34:40;0.90;99.90
16846;DHT22;8539;53.188;8.696;2024-01-15T01:37:08;0.90;99.90
16846;DHT22;8539;53.188;8.696;2024-01-15T01:39:34;0.90;99.90
16846;DHT22;8539;53.188;8.696;2024-01-15T01:42:00;0.90;99.90
16846;DHT22;8539;53.188;8.696;2024-01-15T01:44:26;0.90;99.90
16846;DHT22;8539;53.188;8.696;2024-01-15T01:46:51;0.80;99.90
16846;DHT22;8539;53.188;8.696;2024-01-15T01:49:18;0.90;99.90
16846;DHT22;8539;53.188;8.696;2024-01-15T01:51:44;0.80;99.90
16846;DHT22;8539;53.188;8.696;2024-01-15T01:54:11;0.80;99.90
16846;DHT22;8539;53.188;8.696;2024-01-15T01:56:40;0.80;99.90
16846;DHT22;8539;53.188;8.696;2024-01-15T01:59:07;0.80;99.90
16846;DHT22;8539;53.188;8.696;2024-01-15T02:01:35;0.80;99.90
16846;DHT22;8539;53.188;8.696;2024-01-15T02:04:01;0.80;99.90
16846;DHT22;8539;53.188;8.696;2024-01-15T02:06:29;0.80;99.90
16846;DHT22;8539;53.188;8.696;2024-01-15T02:08:55;0.80;99.90
16846;DHT22;8539;53.188;8.696;2024-01-15T02:11:21;0.80;99.90
16846;DHT22;8539;53.188;8.696;2024-01-15T02:13:47;0.80;99.90
16846;DHT22;8539;53.188;8.696;2024-01-15T02:16:13;0.80;99.90
16846;DHT22;8539;53.188;8.696;2024-01-15T02:18:43;0.80;99.90
16846;DHT22;8539;53.188;8.696;2024-01-15T02:21:10;0.90;99.90
16846;DHT22;8539;53.188;8.696;2024-01-15T02:23:38;0.90;99.90
16846;DHT22;8539;53.188;8.696;2024-01-15T02:26:05;0.90;99.90
16846;DHT22;8539;53.188;8.696;2024-01-15T02:28:32;0.90;99.90
16846;DHT22;8539;53.188;8.696;2024-01-15T02:30:59;0.90;99.90
16846;DHT22;8539;53.188;8.696;2024-01-15T02:33:25;1.00;99.90
16846;DHT22;8539;53.188;8.696;2024-01-15T02:35:51;1.00;99.90
16846;DHT22;8539;53.188;8.696;2024-01-15T02:38:17;1.00;99.90
16846;DHT22;8539;53.188;8.696;2024-01-15T02:40:44;1.00;99.90
16846;DHT22;8539;53.188;8.696;2024-01-15T02:43:11;1.10;99.90
16846;DHT22;8539;53.188;8.696;2024-01-15T02:45:37;1.10;99.90
16846;DHT22;8539;53.188;8.696;2024-01-15T02:48:03;1.10;99.90
16846;DHT22;8539;53.188;8.696;2024-01-15T02:50:29;1.10;99.90
16846;DHT22;8539;53.188;8.696;2024-01-15T02:52:58;1.10;99.90
16846;DHT22;8539;53.188;8.696;2024-01-15T02:55:24;1.10;99.90
16846;DHT22;8539;53.188;8.696;2024-01-15T02:57:50;1.10;99.90
16846;DHT22;8539;53.188;8.696;2024-01-15T03:00:15;1.10;99.90
16846;DHT22;8539;53.188;8.696;2024-01-15T03:02:44;1.10;99.90
16846;DHT22;8539;53.188;8.696;2024-01-15T03:05:10;1.10;99.90
16846;DHT22;8539;53.188;8.696;2024-01-15T03:07:36;1.00;99.90
16846;DHT22;8539;53.188;8.696;2024-01-15T03:10:02;1.00;99.90
16846;DHT22;8539;53.188;8.696;2024-01-15T03:12:28;1.00;99.90
16846;DHT22;8539;53.188;8.696;2024-01-15T03:14:54;1.10;99.90
16846;DHT22;8539;53.188;8.696;2024-01-15T03:17:23;1.00;99.90
16846;DHT22;8539;53.188;8.696;2024-01-15T03:19:49;1.00;99.90
16846;DHT22;8539;53.188;8.696;2024-01-15T03:22:16;1.00;99.90
16846;DHT22;8539;53.188;8.696;2024-01-15T03:24:42;1.00;99.90
16846;DHT22;8539;53.188;8.696;2024-01-15T03:27:08;1.00;99.90
16846;DHT22;8539;53.188;8.696;2024-01-15T03:29:34;0.90;99.90
16846;DHT22;8539;53.188;8.696;2024-01-15T03:32:00;0.90;99.90
16846;DHT22;8539;53.188;8.696;2024-01-15T03:36:56;0.90;99.90
16846;DHT22;8539;53.188;8.696;2024-01-15T03:39:25;0.90;99.90
16846;DHT22;8539;53.188;8.696;2024-01-15T03:41:51;1.00;99.90
16846;DHT22;8539;53.188;8.696;2024-01-15T03:44:20;1.00;99.90
16846;DHT22;8539;53.188;8.696;2024-01-15T03:46:46;1.00;99.90
16846;DHT22;8539;53.188;8.696;2024-01-15T03:49:12;1.10;99.90
16846;DHT22;8539;53.188;8.696;2024-01-15T03:51:38;1.10;99.90
16846;DHT22;8539;53.188;8.696;2024-01-15T03:54:04;1.10;99.90
16846;DHT22;8539;53.188;8.696;2024-01-15T03:56:33;1.10;99.90
16846;DHT22;8539;53.188;8.696;2024-01-15T03:58:59;1.10;99.90
16846;DHT22;8539;53.188;8.696;2024-01-15T04:01:28;1.10;99.90
16846;DHT22;8539;53.188;8.696;2024-01-15T04:03:54;1.00;99.90
16846;DHT22;8539;53.188;8.696;2024-01-15T04:06:20;1.00;99.90
16846;DHT22;8539;53.188;8.696;2024-01-15T04:08:49;1.10;99.90
16846;DHT22;8539;53.188;8.696;2024-01-15T04:11:17;1.00;99.90
16846;DHT22;8539;53.188;8.696;2024-01-15T04:13:43;1.10;99.90
16846;DHT22;8539;53.188;8.696;2024-01-15T04:16:09;1.10;99.90
16846;DHT22;8539;53.188;8.696;2024-01-15T04:18:35;1.10;99.90
16846;DHT22;8539;53.188;8.696;2024-01-15T04:21:04;1.20;99.90
16846;DHT22;8539;53.188;8.696;2024-01-15T04:23:32;1.20;99.90
16846;DHT22;8539;53.188;8.696;2024-01-15T04:26:02;1.10;99.90
16846;DHT22;8539;53.188;8.696;2024-01-15T04:28:28;1.10;99.90
16846;DHT22;8539;53.188;8.696;2024-01-15T04:30:53;1.10;99.90
16846;DHT22;8539;53.188;8.696;2024-01-15T04:33:19;1.10;99.90
16846;DHT22;8539;53.188;8.696;2024-01-15T04:35:45;1.10;99.90
16846;DHT22;8539;53.188;8.696;2024-01-15T04:38:11;1.10;99.90
16846;DHT22;8539;53.188;8.696;2024-01-15T04:40:37;1.10;99.90
16846;DHT22;8539;53.188;8.696;2024-01-15T04:43:03;1.20;99.90
16846;DHT22;8539;53.188;8.696;2024-01-15T04:45:32;1.20;99.90
16846;DHT22;8539;53.188;8.696;2024-01-15T04:47:58;1.30;99.90
16846;DHT22;8539;53.188;8.696;2024-01-15T04:50:27;1.20;99.90
16846;DHT22;8539;53.188;8.696;2024-01-15T04:52:57;1.40;99.90
16846;DHT22;8539;53.188;8.696;2024-01-15T04:55:23;1.20;99.90
16846;DHT22;8539;53.188;8.696;2024-01-15T04:57:49;1.20;99.90
16846;DHT22;8539;53.188;8.696;2024-01-15T05:00:15;1.20;99.90
16846;DHT22;8539;53.188;8.696;2024-01-15T05:02:41;1.20;99.90
16846;DHT22;8539;53.188;8.696;2024-01-15T05:05:07;1.10;99.90
16846;DHT22;8539;53.188;8.696;2024-01-15T05:07:33;1.10;99.90
16846;DHT22;8539;53.188;8.696;2024-01-15T05:09:59;1.10;99.90
16846;DHT22;8539;53.188;8.696;2024-01-15T05:12:25;1.10;99.90
16846;DHT22;8539;53.188;8.696;2024-01-15T05:14:53;1.10;99.90
16846;DHT22;8539;53.188;8.696;2024-01-15T05:17:19;1.00;99.90
16846;DHT22;8539;53.188;8.696;2024-01-15T05:19:45;1.00;99.90
16846;DHT22;8539;53.188;8.696;2024-01-15T05:22:11;1.10;99.90
16846;DHT22;8539;53.188;8.696;2024-01-15T05:24:37;2.40;99.90
16846;DHT22;8539;53.188;8.696;2024-01-15T05:27:03;1.10;99.90
16846;DHT22;8539;53.188;8.696;2024-01-15T05:29:29;1.10;99.90
16846;DHT22;8539;53.188;8.696;2024-01-15T05:31:55;1.10;99.90
16846;DHT22;8539;53.188;8.696;2024-01-15T05:34:20;1.10;99.90
16846;DHT22;8539;53.188;8.696;2024-01-15T05:36:47;1.10;99.90
16846;DHT22;8539;53.188;8.696;2024-01-15T05:39:13;1.10;99.90
16846;DHT22;8539;53.188;8.696;2024-01-15T05:41:40;1.10;99.90
16846;DHT22;8539;53.188;8.696;2024-01-15T05:44:05;1.10;99.90
16846;DHT22;8539;53.188;8.696;2024-01-15T05:46:31;1.10;99.90
16846;DHT22;8539;53.188;8.696;2024-01-15T05:48:57;1.10;99.90
16846;DHT22;8539;53.188;8.696;2024-01-15T05:51:23;1.10;99.90
16846;DHT22;8539;53.188;8.696;2024-01-15T05:53:50;1.10;99.90
16846;DHT22;8539;53.188;8.696;2024-01-15T05:56:15;1.00;99.90
16846;DHT22;8539;53.188;8.696;2024-01-15T05:58:42;1.00;99.90
16846;DHT22;8539;53.188;8.696;2024-01-15T06:01:07;1.00;99.90
16846;DHT22;8539;53.188;8.696;2024-01-15T06:03:33;1.10;99.90
16846;DHT22;8539;53.188;8.696;2024-01-15T06:05:59;1.00;99.90
16846;DHT22;8539;53.188;8.696;2024-01-15T06:08:25;1.00;99.90
16846;DHT22;8539;53.188;8.696;2024-01-15T06:10:53;1.00;99.90
16846;DHT22;8539;53.188;8.696;2024-01-15T06:13:20;1.00;99.90
16846;DHT22;8539;53.188;8.696;2024-01-15T06:15:45;1.00;99.90
16846;DHT22;8539;53.188;8.696;2024-01-15T06:18:11;1.10;99.90
16846;DHT22;8539;53.188;8.696;2024-01-15T06:20:37;1.00;99.90
16846;DHT22;8539;53.188;8.696;2024-01-15T06:23:04;1.00;99.90
16846;DHT22;8539;53.188;8.696;2024-01-15T06:25:29;1.00;99.90
16846;DHT22;8539;53.188;8.696;2024-01-15T06:27:56;1.10;99.90
16846;DHT22;8539;53.188;8.696;2024-01-15T06:30:22;1.10;99.90
16846;DHT22;8539;53.188;8.696;2024-01-15T06:32:48;1.10;99.90
16846;DHT22;8539;53.188;8.696;2024-01-15T06:35:14;1.10;99.90
16846;DHT22;8539;53.188;8.696;2024-01-15T06:37:40;1.10;99.90
16846;DHT22;8539;53.188;8.696;2024-01-15T06:40:06;1.10;99.90
16846;DHT22;8539;53.188;8.696;2024-01-15T06:42:32;1.10;99.90
16846;DHT22;8539;53.188;8.696;2024-01-15T06:44:58;1.10;99.90
16846;DHT22;8539;53.188;8.696;2024-01-15T06:47:24;1.10;99.90
16846;DHT22;8539;53.188;8.696;2024-01-15T06:49:50;1.10;99.90
16846;DHT22;8539;53.188;8.696;2024-01-15T06:52:17;1.10;99.90
16846;DHT22;8539;53.188;8.696;2024-01-15T06:54:44;1.10;99.90
16846;DHT22;8539;53.188;8.696;2024-01-15T06:57:10;1.10;99.90
16846;DHT22;8539;53.188;8.696;2024-01-15T06:59:36;1.10;99.90
16846;DHT22;8539;53.188;8.696;2024-01-15T07:02:02;1.00;99.90
16846;DHT22;8539;53.188;8.696;2024-01-15T07:04:28;1.00;99.90
16846;DHT22;8539;53.188;8.696;2024-01-15T07:06:54;1.00;99.90
16846;DHT22;8539;53.188;8.696;2024-01-15T07:09:20;1.00;99.90
16846;DHT22;8539;53.188;8.696;2024-01-15T07:11:46;0.90;99.90
16846;DHT22;8539;53.188;8.696;2024-01-15T07:14:12;0.90;99.90
16846;DHT22;8539;53.188;8.696;2024-01-15T07:16:38;0.90;99.90
16846;DHT22;8539;53.188;8.696;2024-01-15T07:19:04;0.90;99.90
16846;DHT22;8539;53.188;8.696;2024-01-15T07:21:30;0.90;99.90
16846;DHT22;8539;53.188;8.696;2024-01-15T07:23:56;0.90;99.90
16846;DHT22;8539;53.188;8.696;2024-01-15T07:26:22;0.90;99.90
16846;DHT22;8539;53.188;8.696;2024-01-15T07:28:48;0.90;99.90
16846;DHT22;8539;53.188;8.696;2024-01-15T07:31:16;0.90;99.90
16846;DHT22;8539;53.188;8.696;2024-01-15T07:33:42;0.90;99.90
16846;DHT22;8539;53.188;8.696;2024-01-15T07:36:08;0.80;99.90
16846;DHT22;8539;53.188;8.696;2024-01-15T07:38:34;0.80;99.90
16846;DHT22;8539;53.188;8.696;2024-01-15T07:41:00;0.90;99.90
16846;DHT22;8539;53.188;8.696;2024-01-15T07:43:26;0.90;99.90
16846;DHT22;8539;53.188;8.696;2024-01-15T07:45:53;0.80;99.90
16846;DHT22;8539;53.188;8.696;2024-01-15T07:48:19;0.80;99.90
16846;DHT22;8539;53.188;8.696;2024-01-15T07:50:46;0.80;99.90
16846;DHT22;8539;53.188;8.696;2024-01-15T07:53:12;0.80;99.90
16846;DHT22;8539;53.188;8.696;2024-01-15T07:55:38;0.80;99.90
16846;DHT22;8539;53.188;8.696;2024-01-15T07:58:04;0.90;99.90
16846;DHT22;8539;53.188;8.696;2024-01-15T08:00:30;0.80;99.90
16846;DHT22;8539;53.188;8.696;2024-01-15T08:02:56;0.80;99.90
16846;DHT22;8539;53.188;8.696;2024-01-15T08:05:22;0.80;99.90
16846;DHT22;8539;53.188;8.696;2024-01-15T08:07:48;0.80;99.90
16846;DHT22;8539;53.188;8.696;2024-01-15T08:10:14;0.90;99.90
16846;DHT22;8539;53.188;8.696;2024-01-15T08:12:40;0.80;99.90
16846;DHT22;8539;53.188;8.696;2024-01-15T08:15:05;0.80;99.90
16846;DHT22;8539;53.188;8.696;2024-01-15T08:17:31;0.80;99.90
16846;DHT22;8539;53.188;8.696;2024-01-15T08:19:58;0.80;99.90
16846;DHT22;8539;53.188;8.696;2024-01-15T08:22:25;0.80;99.90
16846;DHT22;8539;53.188;8.696;2024-01-15T08:24:50;0.80;99.90
16846;DHT22;8539;53.188;8.696;2024-01-15T08:27:17;0.90;99.90
16846;DHT22;8539;53.188;8.696;2024-01-15T08:29:43;1.00;99.90
16846;DHT22;8539;53.188;8.696;2024-01-15T08:32:10;0.90;99.90
16846;DHT22;8539;53.188;8.696;2024-01-15T08:34:39;0.90;99.90
16846;DHT22;8539;53.188;8.696;2024-01-15T08:37:05;1.00;99.90
16846;DHT22;8539;53.188;8.696;2024-01-15T08:39:31;0.90;99.90
16846;DHT22;8539;53.188;8.696;2024-01-15T08:41:57;1.00;99.90
16846;DHT22;8539;53.188;8.696;2024-01-15T08:44:23;0.90;99.90
16846;DHT22;8539;53.188;8.696;2024-01-15T08:46:48;0.90;99.90
16846;DHT22;8539;53.188;8.696;2024-01-15T08:49:15;0.90;99.90
16846;DHT22;8539;53.188;8.696;2024-01-15T08:51:41;0.80;99.90
16846;DHT22;8539;53.188;8.696;2024-01-15T08:54:07;0.80;99.90
16846;DHT22;8539;53.188;8.696;2024-01-15T08:56:34;0.80;99.90
16846;DHT22;8539;53.188;8.696;2024-01-15T08:59:00;0.80;99.90
16846;DHT22;8539;53.188;8.696;2024-01-15T09:01:26;0.80;99.90
16846;DHT22;8539;53.188;8.696;2024-01-15T09:03:52;0.80;99.90
16846;DHT22;8539;53.188;8.696;2024-01-15T09:06:18;0.80;99.90
16846;DHT22;8539;53.188;8.696;2024-01-15T09:08:44;0.80;99.90
16846;DHT22;8539;53.188;8.696;2024-01-15T09:11:10;0.90;99.90
16846;DHT22;8539;53.188;8.696;2024-01-15T09:13:36;0.90;99.90
16846;DHT22;8539;53.188;8.696;2024-01-15T09:16:02;1.30;99.90
16846;DHT22;8539;53.188;8.696;2024-01-15T09:18:28;0.90;99.90
16846;DHT22;8539;53.188;8.696;2024-01-15T09:20:55;0.90;99.90
16846;DHT22;8539;53.188;8.696;2024-01-15T09:23:21;0.90;99.90
16846;DHT22;8539;53.188;8.696;2024-01-15T09:25:47;0.90;99.90
16846;DHT22;8539;53.188;8.696;2024-01-15T09:28:14;0.90;99.90
16846;DHT22;8539;53.188;8.696;2024-01-15T09:30:40;0.90;99.90
16846;DHT22;8539;53.188;8.696;2024-01-15T09:33:06;0.90;99.90
16846;DHT22;8539;53.188;8.696;2024-01-15T09:35:32;0.80;99.90
16846;DHT22;8539;53.188;8.696;2024-01-15T09:37:57;0.80;99.90
16846;DHT22;8539;53.188;8.696;2024-01-15T09:40:23;0.80;99.90
16846;DHT22;8539;53.188;8.696;2024-01-15T09:42:51;0.80;99.90
16846;DHT22;8539;53.188;8.696;2024-01-15T09:45:18;0.80;99.90
16846;DHT22;8539;53.188;8.696;2024-01-15T09:47:44;0.80;99.90
16846;DHT22;8539;53.188;8.696;2024-01-15T09:50:10;0.80;99.90
16846;DHT22;8539;53.188;8.696;2024-01-15T09:52:36;0.90;99.90
16846;DHT22;8539;53.188;8.696;2024-01-15T09:55:03;0.80;99.90
16846;DHT22;8539;53.188;8.696;2024-01-15T09:57:31;0.80;99.90
16846;DHT22;8539;53.188;8.696;2024-01-15T09:59:59;0.80;99.90
16846;DHT22;8539;53.188;8.696;2024-01-15T10:02:29;0.90;99.90
16846;DHT22;8539;53.188;8.696;2024-01-15T10:04:55;0.90;99.90
16846;DHT22;8539;53.188;8.696;2024-01-15T10:07:21;1.00;99.90
16846;DHT22;8539;53.188;8.696;2024-01-15T10:09:48;0.90;99.90
16846;DHT22;8539;53.188;8.696;2024-01-15T10:12:14;0.90;99.90
16846;DHT22;8539;53.188;8.696;2024-01-15T10:14:41;0.90;99.90
16846;DHT22;8539;53.188;8.696;2024-01-15T10:17:15;0.90;99.90
16846;DHT22;8539;53.188;8.696;2024-01-15T10:19:41;1.00;99.90
16846;DHT22;8539;53.188;8.696;2024-01-15T10:22:08;1.00;99.90
16846;DHT22;8539;53.188;8.696;2024-01-15T10:24:37;1.10;99.90
16846;DHT22;8539;53.188;8.696;2024-01-15T10:27:08;1.10;99.90
16846;DHT22;8539;53.188;8.696;2024-01-15T10:29:35;1.10;99.90
16846;DHT22;8539;53.188;8.696;2024-01-15T10:32:03;1.10;99.90
16846;DHT22;8539;53.188;8.696;2024-01-15T10:34:32;1.10;99.90
16846;DHT22;8539;53.188;8.696;2024-01-15T10:36:57;1.20;99.90
16846;DHT22;8539;53.188;8.696;2024-01-15T10:39:24;1.20;99.90
16846;DHT22;8539;53.188;8.696;2024-01-15T10:41:50;1.20;99.90
16846;DHT22;8539;53.188;8.696;2024-01-15T10:44:17;1.20;99.90
16846;DHT22;8539;53.188;8.696;2024-01-15T10:46:44;1.30;99.90
16846;DHT22;8539;53.188;8.696;2024-01-15T10:49:11;1.30;99.90
16846;DHT22;8539;53.188;8.696;2024-01-15T10:51:38;1.20;99.90
16846;DHT22;8539;53.188;8.696;2024-01-15T10:54:04;1.20;99.90
16846;DHT22;8539;53.188;8.696;2024-01-15T10:56:32;1.20;99.90
16846;DHT22;8539;53.188;8.696;2024-01-15T10:59:01;1.10;99.90
16846;DHT22;8539;53.188;8.696;2024-01-15T11:01:28;1.10;99.90
16846;DHT22;8539;53.188;8.696;2024-01-15T11:03:55;1.10;99.90
16846;DHT22;8539;53.188;8.696;2024-01-15T11:06:24;1.10;99.90
16846;DHT22;8539;53.188;8.696;2024-01-15T11:08:51;1.20;99.90
16846;DHT22;8539;53.188;8.696;2024-01-15T11:11:18;1.10;99.90
16846;DHT22;8539;53.188;8.696;2024-01-15T11:13:47;1.20;99.90
16846;DHT22;8539;53.188;8.696;2024-01-15T11:16:15;1.20;99.90
16846;DHT22;8539;53.188;8.696;2024-01-15T11:18:43;1.20;99.90
16846;DHT22;8539;53.188;8.696;2024-01-15T11:31:57;1.30;99.90
16846;DHT22;8539;53.188;8.696;2024-01-15T11:37:24;1.50;99.90
16846;DHT22;8539;53.188;8.696;2024-01-15T11:39:52;1.40;99.90
16846;DHT22;8539;53.188;8.696;2024-01-15T11:42:20;1.50;99.90
16846;DHT22;8539;53.188;8.696;2024-01-15T11:44:47;1.50;99.90
16846;DHT22;8539;53.188;8.696;2024-01-15T11:47:13;1.50;99.90
16846;DHT22;8539;53.188;8.696;2024-01-15T11:52:11;1.50;99.90
16846;DHT22;8539;53.188;8.696;2024-01-15T11:54:38;1.40;99.90
16846;DHT22;8539;53.188;8.696;2024-01-15T11:57:10;1.30;99.90
16846;DHT22;8539;53.188;8.696;2024-01-15T11:59:41;1.30;99.90
16846;DHT22;8539;53.188;8.696;2024-01-15T12:02:07;1.20;99.90
16846;DHT22;8539;53.188;8.696;2024-01-15T12:04:34;1.20;99.90
16846;DHT22;8539;53.188;8.696;2024-01-15T12:07:01;1.20;99.90
16846;DHT22;8539;53.188;8.696;2024-01-15T12:09:27;1.20;99.90
16846;DHT22;8539;53.188;8.696;2024-01-15T12:12:03;1.30;99.90
16846;DHT22;8539;53.188;8.696;2024-01-15T12:14:33;1.30;99.90
16846;DHT22;8539;53.188;8.696;2024-01-15T12:17:00;1.40;99.90
16846;DHT22;8539;53.188;8.696;2024-01-15T12:19:27;1.50;99.90
16846;DHT22;8539;53.188;8.696;2024-01-15T12:21:53;1.50;99.90
16846;DHT22;8539;53.188;8.696;2024-01-15T12:24:19;1.60;99.90
16846;DHT22;8539;53.188;8.696;2024-01-15T12:26:45;1.70;99.90
16846;DHT22;8539;53.188;8.696;2024-01-15T12:29:14;1.70;99.90
16846;DHT22;8539;53.188;8.696;2024-01-15T12:31:40;1.70;99.90
16846;DHT22;8539;53.188;8.696;2024-01-15T12:34:05;1.70;99.90
16846;DHT22;8539;53.188;8.696;2024-01-15T12:36:31;1.70;99.90
16846;DHT22;8539;53.188;8.696;2024-01-15T12:39:03;1.60;99.90
16846;DHT22;8539;53.188;8.696;2024-01-15T12:41:29;1.60;99.90
16846;DHT22;8539;53.188;8.696;2024-01-15T12:43:55;1.50;99.90
16846;DHT22;8539;53.188;8.696;2024-01-15T12:46:21;1.60;99.90
16846;DHT22;8539;53.188;8.696;2024-01-15T12:48:47;1.60;99.90
16846;DHT22;8539;53.188;8.696;2024-01-15T12:51:13;1.60;99.90
16846;DHT22;8539;53.188;8.696;2024-01-15T12:53:41;1.60;99.90
16846;DHT22;8539;53.188;8.696;2024-01-15T12:56:07;1.60;99.90
16846;DHT22;8539;53.188;8.696;2024-01-15T12:58:33;1.60;99.90
16846;DHT22;8539;53.188;8.696;2024-01-15T13:00:59;1.60;99.90
16846;DHT22;8539;53.188;8.696;2024-01-15T13:03:25;1.60;99.90
16846;DHT22;8539;53.188;8.696;2024-01-15T13:05:51;1.60;99.90
16846;DHT22;8539;53.188;8.696;2024-01-15T13:08:18;1.60;99.90
16846;DHT22;8539;53.188;8.696;2024-01-15T13:10:43;1.50;99.90
16846;DHT22;8539;53.188;8.696;2024-01-15T13:13:10;1.30;99.90
16846;DHT22;8539;53.188;8.696;2024-01-15T13:15:36;1.30;99.90
16846;DHT22;8539;53.188;8.696;2024-01-15T13:18:01;1.20;99.90
16846;DHT22;8539;53.188;8.696;2024-01-15T13:20:27;1.10;99.90
16846;DHT22;8539;53.188;8.696;2024-01-15T13:22:53;1.10;99.90
16846;DHT22;8539;53.188;8.696;2024-01-15T13:25:19;1.00;99.90
16846;DHT22;8539;53.188;8.696;2024-01-15T13:27:46;1.20;99.90
16846;DHT22;8539;53.188;8.696;2024-01-15T13:30:12;1.00;99.90
16846;DHT22;8539;53.188;8.696;2024-01-15T13:32:38;1.00;99.90
16846;DHT22;8539;53.188;8.696;2024-01-15T13:35:05;1.00;99.90
16846;DHT22;8539;53.188;8.696;2024-01-15T13:37:33;1.00;99.90
16846;DHT22;8539;53.188;8.696;2024-01-15T13:39:59;1.00;99.90
16846;DHT22;8539;53.188;8.696;2024-01-15T13:42:25;1.00;99.90
16846;DHT22;8539;53.188;8.696;2024-01-15T13:44:53;1.00;99.90
16846;DHT22;8539;53.188;8.696;2024-01-15T13:47:18;1.00;99.90
16846;DHT22;8539;53.188;8.696;2024-01-15T13:49:47;0.90;99.90
16846;DHT22;8539;53.188;8.696;2024-01-15T13:52:13;1.00;99.90
16846;DHT22;8539;53.188;8.696;2024-01-15T13:54:42;1.00;99.90
16846;DHT22;8539;53.188;8.696;2024-01-15T13:57:08;0.90;99.90
16846;DHT22;8539;53.188;8.696;2024-01-15T13:59:34;1.10;99.90
16846;DHT22;8539;53.188;8.696;2024-01-15T14:02:00;0.90;99.90
16846;DHT22;8539;53.188;8.696;2024-01-15T14:04:26;0.90;99.90
16846;DHT22;8539;53.188;8.696;2024-01-15T14:06:52;0.90;99.90
16846;DHT22;8539;53.188;8.696;2024-01-15T14:09:18;0.90;99.90
16846;DHT22;8539;53.188;8.696;2024-01-15T14:11:45;1.00;99.90
16846;DHT22;8539;53.188;8.696;2024-01-15T14:14:11;1.00;99.90
16846;DHT22;8539;53.188;8.696;2024-01-15T14:16:38;1.00;99.90
16846;DHT22;8539;53.188;8.696;2024-01-15T14:19:04;1.00;99.90
16846;DHT22;8539;53.188;8.696;2024-01-15T14:21:35;1.00;99.90
16846;DHT22;8539;53.188;8.696;2024-01-15T14:24:01;1.10;99.90
16846;DHT22;8539;53.188;8.696;2024-01-15T14:26:27;1.10;99.90
16846;DHT22;8539;53.188;8.696;2024-01-15T14:28:53;1.10;99.90
16846;DHT22;8539;53.188;8.696;2024-01-15T14:31:20;1.10;99.90
16846;DHT22;8539;53.188;8.696;2024-01-15T14:33:46;1.20;99.90
16846;DHT22;8539;53.188;8.696;2024-01-15T14:36:12;1.10;99.90
16846;DHT22;8539;53.188;8.696;2024-01-15T14:38:38;1.20;99.90
16846;DHT22;8539;53.188;8.696;2024-01-15T14:41:07;1.20;99.90
16846;DHT22;8539;53.188;8.696;2024-01-15T14:43:33;1.20;99.90
16846;DHT22;8539;53.188;8.696;2024-01-15T14:46:02;1.20;99.90
16846;DHT22;8539;53.188;8.696;2024-01-15T14:48:28;1.20;99.90
16846;DHT22;8539;53.188;8.696;2024-01-15T14:50:54;1.20;99.90
16846;DHT22;8539;53.188;8.696;2024-01-15T14:53:20;1.10;99.90
16846;DHT22;8539;53.188;8.696;2024-01-15T14:55:47;1.20;99.90
16846;DHT22;8539;53.188;8.696;2024-01-15T14:58:12;1.20;99.90
16846;DHT22;8539;53.188;8.696;2024-01-15T15:00:38;1.20;99.90
16846;DHT22;8539;53.188;8.696;2024-01-15T15:03:04;1.20;99.90
16846;DHT22;8539;53.188;8.696;2024-01-15T15:05:30;1.20;99.90
16846;DHT22;8539;53.188;8.696;2024-01-15T15:07:56;1.20;99.90
16846;DHT22;8539;53.188;8.696;2024-01-15T15:10:22;1.20;99.90
16846;DHT22;8539;53.188;8.696;2024-01-15T15:12:48;1.10;99.90
16846;DHT22;8539;53.188;8.696;2024-01-15T15:15:14;1.20;99.90
16846;DHT22;8539;53.188;8.696;2024-01-15T15:17:42;1.10;99.90
16846;DHT22;8539;53.188;8.696;2024-01-15T15:20:09;1.10;99.90
16846;DHT22;8539;53.188;8.696;2024-01-15T15:22:35;1.10;99.90
16846;DHT22;8539;53.188;8.696;2024-01-15T15:25:01;1.10;99.90
16846;DHT22;8539;53.188;8.696;2024-01-15T15:27:27;1.10;99.90
16846;DHT22;8539;53.188;8.696;2024-01-15T15:29:54;1.10;99.90
16846;DHT22;8539;53.188;8.696;2024-01-15T15:32:20;1.10;99.90
16846;DHT22;8539;53.188;8.696;2024-01-15T15:34:46;1.00;99.90
16846;DHT22;8539;53.188;8.696;2024-01-15T15:37:12;1.10;99.90
16846;DHT22;8539;53.188;8.696;2024-01-15T15:39:42;1.30;99.90
16846;DHT22;8539;53.188;8.696;2024-01-15T15:42:08;1.00;99.90
16846;DHT22;8539;53.188;8.696;2024-01-15T15:44:34;1.00;99.90
16846;DHT22;8539;53.188;8.696;2024-01-15T15:47:00;1.00;99.90
16846;DHT22;8539;53.188;8.696;2024-01-15T15:49:26;1.00;99.90
16846;DHT22;8539;53.188;8.696;2024-01-15T15:51:52;1.00;99.90
16846;DHT22;8539;53.188;8.696;2024-01-15T15:54:18;1.00;99.90
16846;DHT22;8539;53.188;8.696;2024-01-15T15:56:44;0.90;99.90
16846;DHT22;8539;53.188;8.696;2024-01-15T15:59:13;0.90;99.90
16846;DHT22;8539;53.188;8.696;2024-01-15T16:01:39;1.00;99.90
16846;DHT22;8539;53.188;8.696;2024-01-15T16:04:05;0.90;99.90
16846;DHT22;8539;53.188;8.696;2024-01-15T16:06:31;0.90;99.90
16846;DHT22;8539;53.188;8.696;2024-01-15T16:08:58;0.90;99.90
16846;DHT22;8539;53.188;8.696;2024-01-15T16:11:24;0.90;99.90
16846;DHT22;8539;53.188;8.696;2024-01-15T16:13:49;0.90;99.90
16846;DHT22;8539;53.188;8.696;2024-01-15T16:16:16;0.90;99.90